San Antonio, Texas
Current Conditions -  °F | °C
As of 11:08 PM on Friday 19 Dec 2014 (Local Time) from KSKF Reporting Station
Broken Clouds Broken Clouds  
Wind Chill: 11°   Ceiling: 1600
Heat Index: 11°   Visibility: 10mi
Dew Point:   Wind: 12mph
Humidity: 76%   Direction: 30°NNE
Pressure: 30.14"   Gusts: NA
Location:  29.42°N, 98.49°W
Report Text: KSKF 200508Z AUTO 03010KT 10SM BKN016 11/07 A3014 RMK AO2 BKN V SCT $
Loading
Personal Weather Stations






























Interactive Weather Map New forecast layout! Learn more

10-Day Weather Forecast

Advertisements
Track Severe Weather on mobile